sensor_id;sensor_type;location;lat;lon;timestamp;P1;durP1;ratioP1;P2;durP2;ratioP2
12248;SDS011;6187;50.778;6.142;2023-09-12T00:01:07;4.07;;;3.60;;
12248;SDS011;6187;50.778;6.142;2023-09-12T00:03:35;4.33;;;3.70;;
12248;SDS011;6187;50.778;6.142;2023-09-12T00:06:04;4.57;;;3.50;;
12248;SDS011;6187;50.778;6.142;2023-09-12T00:08:33;4.07;;;3.60;;
12248;SDS011;6187;50.778;6.142;2023-09-12T00:11:02;3.10;;;2.80;;
12248;SDS011;6187;50.778;6.142;2023-09-12T00:13:33;3.77;;;3.37;;
12248;SDS011;6187;50.778;6.142;2023-09-12T00:16:02;3.80;;;3.20;;
12248;SDS011;6187;50.778;6.142;2023-09-12T00:18:31;3.73;;;3.40;;
12248;SDS011;6187;50.778;6.142;2023-09-12T00:21:01;3.07;;;2.77;;
12248;SDS011;6187;50.778;6.142;2023-09-12T00:23:30;3.00;;;2.70;;
12248;SDS011;6187;50.778;6.142;2023-09-12T00:25:58;3.33;;;3.03;;
12248;SDS011;6187;50.778;6.142;2023-09-12T00:28:27;2.97;;;2.77;;
12248;SDS011;6187;50.778;6.142;2023-09-12T00:30:57;4.73;;;3.57;;
12248;SDS011;6187;50.778;6.142;2023-09-12T00:33:26;3.47;;;3.07;;
12248;SDS011;6187;50.778;6.142;2023-09-12T00:35:54;3.40;;;3.07;;
12248;SDS011;6187;50.778;6.142;2023-09-12T00:38:23;3.40;;;3.10;;
12248;SDS011;6187;50.778;6.142;2023-09-12T00:40:52;3.67;;;3.37;;
12248;SDS011;6187;50.778;6.142;2023-09-12T00:43:21;3.97;;;3.37;;
12248;SDS011;6187;50.778;6.142;2023-09-12T00:45:50;3.90;;;3.10;;
12248;SDS011;6187;50.778;6.142;2023-09-12T00:48:21;3.97;;;3.23;;
12248;SDS011;6187;50.778;6.142;2023-09-12T00:50:50;3.57;;;3.27;;
12248;SDS011;6187;50.778;6.142;2023-09-12T00:53:19;3.57;;;3.27;;
12248;SDS011;6187;50.778;6.142;2023-09-12T00:55:50;3.90;;;3.50;;
12248;SDS011;6187;50.778;6.142;2023-09-12T00:58:20;4.20;;;3.80;;
12248;SDS011;6187;50.778;6.142;2023-09-12T01:00:49;3.27;;;2.97;;
12248;SDS011;6187;50.778;6.142;2023-09-12T01:03:18;4.10;;;3.70;;
12248;SDS011;6187;50.778;6.142;2023-09-12T01:05:48;4.07;;;3.50;;
12248;SDS011;6187;50.778;6.142;2023-09-12T01:08:17;3.93;;;3.53;;
12248;SDS011;6187;50.778;6.142;2023-09-12T01:10:45;4.23;;;3.67;;
12248;SDS011;6187;50.778;6.142;2023-09-12T01:13:15;4.30;;;3.90;;
12248;SDS011;6187;50.778;6.142;2023-09-12T01:15:45;4.50;;;3.67;;
12248;SDS011;6187;50.778;6.142;2023-09-12T01:18:13;3.93;;;3.53;;
12248;SDS011;6187;50.778;6.142;2023-09-12T01:20:53;3.77;;;3.47;;
12248;SDS011;6187;50.778;6.142;2023-09-12T01:23:32;4.00;;;3.53;;
12248;SDS011;6187;50.778;6.142;2023-09-12T01:26:04;3.57;;;3.27;;
12248;SDS011;6187;50.778;6.142;2023-09-12T01:28:37;3.77;;;3.47;;
12248;SDS011;6187;50.778;6.142;2023-09-12T01:31:09;4.07;;;3.30;;
12248;SDS011;6187;50.778;6.142;2023-09-12T01:33:38;3.57;;;3.27;;
12248;SDS011;6187;50.778;6.142;2023-09-12T01:38:36;3.77;;;3.43;;
12248;SDS011;6187;50.778;6.142;2023-09-12T01:41:05;4.13;;;3.73;;
12248;SDS011;6187;50.778;6.142;2023-09-12T01:43:34;4.83;;;3.50;;
12248;SDS011;6187;50.778;6.142;2023-09-12T01:46:07;4.10;;;3.70;;
12248;SDS011;6187;50.778;6.142;2023-09-12T01:48:36;4.17;;;3.27;;
12248;SDS011;6187;50.778;6.142;2023-09-12T01:51:05;3.90;;;3.50;;
12248;SDS011;6187;50.778;6.142;2023-09-12T01:53:34;4.77;;;3.53;;
12248;SDS011;6187;50.778;6.142;2023-09-12T01:56:04;3.97;;;3.53;;
12248;SDS011;6187;50.778;6.142;2023-09-12T01:58:32;4.13;;;3.27;;
12248;SDS011;6187;50.778;6.142;2023-09-12T02:01:01;4.03;;;3.50;;
12248;SDS011;6187;50.778;6.142;2023-09-12T02:03:31;4.53;;;3.33;;
12248;SDS011;6187;50.778;6.142;2023-09-12T02:06:00;3.83;;;3.43;;
12248;SDS011;6187;50.778;6.142;2023-09-12T02:08:29;3.83;;;3.50;;
12248;SDS011;6187;50.778;6.142;2023-09-12T02:10:57;4.10;;;3.60;;
12248;SDS011;6187;50.778;6.142;2023-09-12T02:13:26;3.73;;;3.33;;
12248;SDS011;6187;50.778;6.142;2023-09-12T02:15:58;4.10;;;3.70;;
12248;SDS011;6187;50.778;6.142;2023-09-12T02:18:27;4.57;;;3.93;;
12248;SDS011;6187;50.778;6.142;2023-09-12T02:20:57;4.27;;;3.87;;
12248;SDS011;6187;50.778;6.142;2023-09-12T02:23:26;4.70;;;4.20;;
12248;SDS011;6187;50.778;6.142;2023-09-12T02:25:55;4.83;;;4.10;;
12248;SDS011;6187;50.778;6.142;2023-09-12T02:28:24;4.90;;;4.40;;
12248;SDS011;6187;50.778;6.142;2023-09-12T02:30:52;4.83;;;4.30;;
12248;SDS011;6187;50.778;6.142;2023-09-12T02:33:21;4.27;;;3.87;;
12248;SDS011;6187;50.778;6.142;2023-09-12T02:35:50;4.83;;;4.33;;
12248;SDS011;6187;50.778;6.142;2023-09-12T02:38:20;4.63;;;4.03;;
12248;SDS011;6187;50.778;6.142;2023-09-12T02:40:48;4.10;;;3.70;;
12248;SDS011;6187;50.778;6.142;2023-09-12T02:43:17;4.57;;;4.10;;
12248;SDS011;6187;50.778;6.142;2023-09-12T02:45:45;4.30;;;3.73;;
12248;SDS011;6187;50.778;6.142;2023-09-12T02:48:14;4.10;;;3.70;;
12248;SDS011;6187;50.778;6.142;2023-09-12T02:50:42;4.50;;;4.07;;
12248;SDS011;6187;50.778;6.142;2023-09-12T02:53:11;4.00;;;3.60;;
12248;SDS011;6187;50.778;6.142;2023-09-12T02:55:41;4.97;;;4.30;;
12248;SDS011;6187;50.778;6.142;2023-09-12T02:58:10;4.30;;;3.90;;
12248;SDS011;6187;50.778;6.142;2023-09-12T03:00:38;4.50;;;4.10;;
12248;SDS011;6187;50.778;6.142;2023-09-12T03:03:07;4.23;;;3.83;;
12248;SDS011;6187;50.778;6.142;2023-09-12T03:05:37;4.27;;;3.87;;
12248;SDS011;6187;50.778;6.142;2023-09-12T03:08:05;5.33;;;4.20;;
12248;SDS011;6187;50.778;6.142;2023-09-12T03:10:34;4.07;;;3.67;;
12248;SDS011;6187;50.778;6.142;2023-09-12T03:13:04;4.43;;;3.83;;
12248;SDS011;6187;50.778;6.142;2023-09-12T03:15:35;4.80;;;4.30;;
12248;SDS011;6187;50.778;6.142;2023-09-12T03:18:07;4.60;;;4.10;;
12248;SDS011;6187;50.778;6.142;2023-09-12T03:20:37;5.10;;;4.40;;
12248;SDS011;6187;50.778;6.142;2023-09-12T03:23:06;5.07;;;4.57;;
12248;SDS011;6187;50.778;6.142;2023-09-12T03:25:35;6.03;;;5.33;;
12248;SDS011;6187;50.778;6.142;2023-09-12T03:28:06;6.37;;;5.10;;
12248;SDS011;6187;50.778;6.142;2023-09-12T03:30:36;5.87;;;5.20;;
12248;SDS011;6187;50.778;6.142;2023-09-12T03:33:05;7.57;;;6.20;;
12248;SDS011;6187;50.778;6.142;2023-09-12T03:35:34;7.00;;;6.27;;
12248;SDS011;6187;50.778;6.142;2023-09-12T03:38:03;6.67;;;5.97;;
12248;SDS011;6187;50.778;6.142;2023-09-12T03:40:31;7.40;;;6.50;;
12248;SDS011;6187;50.778;6.142;2023-09-12T03:43:00;7.60;;;6.87;;
12248;SDS011;6187;50.778;6.142;2023-09-12T03:45:30;7.93;;;5.80;;
12248;SDS011;6187;50.778;6.142;2023-09-12T03:47:59;6.87;;;6.17;;
12248;SDS011;6187;50.778;6.142;2023-09-12T03:50:27;8.33;;;6.60;;
12248;SDS011;6187;50.778;6.142;2023-09-12T03:52:56;8.67;;;6.27;;
12248;SDS011;6187;50.778;6.142;2023-09-12T03:55:24;6.97;;;6.27;;
12248;SDS011;6187;50.778;6.142;2023-09-12T03:57:53;8.47;;;6.97;;
12248;SDS011;6187;50.778;6.142;2023-09-12T04:00:22;8.93;;;7.10;;
12248;SDS011;6187;50.778;6.142;2023-09-12T04:02:52;9.13;;;6.80;;
12248;SDS011;6187;50.778;6.142;2023-09-12T04:05:20;9.30;;;7.43;;
12248;SDS011;6187;50.778;6.142;2023-09-12T04:07:49;7.70;;;6.70;;
12248;SDS011;6187;50.778;6.142;2023-09-12T04:10:18;8.63;;;6.43;;
12248;SDS011;6187;50.778;6.142;2023-09-12T04:12:46;7.67;;;6.60;;
12248;SDS011;6187;50.778;6.142;2023-09-12T04:15:15;7.43;;;6.37;;
12248;SDS011;6187;50.778;6.142;2023-09-12T04:17:44;6.67;;;5.97;;
12248;SDS011;6187;50.778;6.142;2023-09-12T04:20:14;8.13;;;6.53;;
12248;SDS011;6187;50.778;6.142;2023-09-12T04:22:43;7.03;;;6.13;;
12248;SDS011;6187;50.778;6.142;2023-09-12T04:25:11;8.03;;;6.37;;
12248;SDS011;6187;50.778;6.142;2023-09-12T04:27:40;8.33;;;6.53;;
12248;SDS011;6187;50.778;6.142;2023-09-12T04:30:09;9.13;;;6.60;;
12248;SDS011;6187;50.778;6.142;2023-09-12T04:32:38;7.53;;;6.30;;
12248;SDS011;6187;50.778;6.142;2023-09-12T04:35:07;8.10;;;5.93;;
12248;SDS011;6187;50.778;6.142;2023-09-12T04:37:37;7.40;;;6.50;;
12248;SDS011;6187;50.778;6.142;2023-09-12T04:40:06;7.90;;;6.60;;
12248;SDS011;6187;50.778;6.142;2023-09-12T04:42:35;8.67;;;6.40;;
12248;SDS011;6187;50.778;6.142;2023-09-12T04:45:04;8.27;;;6.50;;
12248;SDS011;6187;50.778;6.142;2023-09-12T04:47:33;8.47;;;6.77;;
12248;SDS011;6187;50.778;6.142;2023-09-12T04:50:01;8.53;;;6.53;;
12248;SDS011;6187;50.778;6.142;2023-09-12T04:52:30;7.93;;;6.17;;
12248;SDS011;6187;50.778;6.142;2023-09-12T04:55:02;9.00;;;7.23;;
12248;SDS011;6187;50.778;6.142;2023-09-12T04:57:31;8.30;;;7.40;;
12248;SDS011;6187;50.778;6.142;2023-09-12T04:59:59;7.73;;;6.73;;
12248;SDS011;6187;50.778;6.142;2023-09-12T05:02:28;8.97;;;7.37;;
12248;SDS011;6187;50.778;6.142;2023-09-12T05:04:57;9.90;;;8.20;;
12248;SDS011;6187;50.778;6.142;2023-09-12T05:07:25;8.37;;;7.47;;
12248;SDS011;6187;50.778;6.142;2023-09-12T05:09:54;10.67;;;8.40;;
12248;SDS011;6187;50.778;6.142;2023-09-12T05:12:24;10.10;;;8.60;;
12248;SDS011;6187;50.778;6.142;2023-09-12T05:14:53;9.00;;;7.33;;
12248;SDS011;6187;50.778;6.142;2023-09-12T05:17:21;10.97;;;8.60;;
12248;SDS011;6187;50.778;6.142;2023-09-12T05:19:50;10.70;;;8.47;;
12248;SDS011;6187;50.778;6.142;2023-09-12T05:22:19;10.27;;;8.53;;
12248;SDS011;6187;50.778;6.142;2023-09-12T05:24:48;11.73;;;8.00;;
12248;SDS011;6187;50.778;6.142;2023-09-12T05:27:17;9.27;;;8.00;;
12248;SDS011;6187;50.778;6.142;2023-09-12T05:29:47;10.20;;;8.33;;
12248;SDS011;6187;50.778;6.142;2023-09-12T05:32:15;11.37;;;9.00;;
12248;SDS011;6187;50.778;6.142;2023-09-12T05:34:44;9.97;;;8.03;;
12248;SDS011;6187;50.778;6.142;2023-09-12T05:37:16;9.13;;;7.73;;
12248;SDS011;6187;50.778;6.142;2023-09-12T05:39:45;10.63;;;8.33;;
12248;SDS011;6187;50.778;6.142;2023-09-12T05:42:14;10.90;;;7.87;;
12248;SDS011;6187;50.778;6.142;2023-09-12T05:44:48;10.20;;;8.50;;
12248;SDS011;6187;50.778;6.142;2023-09-12T05:47:19;11.23;;;9.33;;
12248;SDS011;6187;50.778;6.142;2023-09-12T05:49:48;13.33;;;10.07;;
12248;SDS011;6187;50.778;6.142;2023-09-12T05:52:17;11.77;;;10.23;;
12248;SDS011;6187;50.778;6.142;2023-09-12T05:54:45;11.17;;;9.43;;
12248;SDS011;6187;50.778;6.142;2023-09-12T05:57:14;11.10;;;9.47;;
12248;SDS011;6187;50.778;6.142;2023-09-12T05:59:42;10.93;;;9.07;;
12248;SDS011;6187;50.778;6.142;2023-09-12T06:02:12;11.40;;;9.70;;
12248;SDS011;6187;50.778;6.142;2023-09-12T06:04:41;12.00;;;9.70;;
12248;SDS011;6187;50.778;6.142;2023-09-12T06:07:10;12.63;;;9.27;;
12248;SDS011;6187;50.778;6.142;2023-09-12T06:09:39;12.70;;;9.97;;
12248;SDS011;6187;50.778;6.142;2023-09-12T06:12:07;13.30;;;10.93;;
12248;SDS011;6187;50.778;6.142;2023-09-12T06:14:36;13.57;;;11.13;;
12248;SDS011;6187;50.778;6.142;2023-09-12T06:17:05;11.73;;;10.23;;
12248;SDS011;6187;50.778;6.142;2023-09-12T06:19:35;12.37;;;10.10;;
12248;SDS011;6187;50.778;6.142;2023-09-12T06:22:10;12.73;;;10.65;;
12248;SDS011;6187;50.778;6.142;2023-09-12T06:24:39;12.47;;;10.40;;
12248;SDS011;6187;50.778;6.142;2023-09-12T06:27:08;15.30;;;11.43;;
12248;SDS011;6187;50.778;6.142;2023-09-12T06:29:38;14.27;;;11.70;;
12248;SDS011;6187;50.778;6.142;2023-09-12T06:32:07;14.47;;;11.03;;
12248;SDS011;6187;50.778;6.142;2023-09-12T06:34:37;13.37;;;11.93;;
12248;SDS011;6187;50.778;6.142;2023-09-12T06:37:05;13.63;;;11.33;;
12248;SDS011;6187;50.778;6.142;2023-09-12T06:39:34;16.30;;;13.03;;
12248;SDS011;6187;50.778;6.142;2023-09-12T06:42:03;15.60;;;12.33;;
12248;SDS011;6187;50.778;6.142;2023-09-12T06:44:31;16.20;;;12.53;;
12248;SDS011;6187;50.778;6.142;2023-09-12T06:47:00;16.23;;;12.27;;
12248;SDS011;6187;50.778;6.142;2023-09-12T06:49:29;16.50;;;12.57;;
12248;SDS011;6187;50.778;6.142;2023-09-12T06:52:02;14.53;;;11.87;;
12248;SDS011;6187;50.778;6.142;2023-09-12T06:54:32;15.10;;;11.97;;
12248;SDS011;6187;50.778;6.142;2023-09-12T06:57:00;15.53;;;12.37;;
12248;SDS011;6187;50.778;6.142;2023-09-12T06:59:29;16.60;;;12.27;;
12248;SDS011;6187;50.778;6.142;2023-09-12T07:01:58;14.67;;;12.10;;
12248;SDS011;6187;50.778;6.142;2023-09-12T07:04:26;16.47;;;11.93;;
12248;SDS011;6187;50.778;6.142;2023-09-12T07:06:55;15.47;;;12.27;;
12248;SDS011;6187;50.778;6.142;2023-09-12T07:09:25;15.47;;;11.77;;
12248;SDS011;6187;50.778;6.142;2023-09-12T07:11:54;14.97;;;12.17;;
12248;SDS011;6187;50.778;6.142;2023-09-12T07:14:22;16.43;;;12.27;;
12248;SDS011;6187;50.778;6.142;2023-09-12T07:16:51;16.97;;;13.47;;
12248;SDS011;6187;50.778;6.142;2023-09-12T07:19:20;16.47;;;13.10;;
12248;SDS011;6187;50.778;6.142;2023-09-12T07:21:49;17.43;;;13.23;;
12248;SDS011;6187;50.778;6.142;2023-09-12T07:24:17;15.17;;;13.03;;
12248;SDS011;6187;50.778;6.142;2023-09-12T07:26:47;17.70;;;12.90;;
12248;SDS011;6187;50.778;6.142;2023-09-12T07:29:16;16.33;;;12.53;;
12248;SDS011;6187;50.778;6.142;2023-09-12T07:31:45;14.70;;;11.77;;
12248;SDS011;6187;50.778;6.142;2023-09-12T07:34:13;15.40;;;12.07;;
12248;SDS011;6187;50.778;6.142;2023-09-12T07:36:42;16.00;;;12.83;;
12248;SDS011;6187;50.778;6.142;2023-09-12T07:39:11;16.23;;;12.77;;
12248;SDS011;6187;50.778;6.142;2023-09-12T07:41:39;18.17;;;12.83;;
12248;SDS011;6187;50.778;6.142;2023-09-12T07:44:09;13.97;;;12.23;;
12248;SDS011;6187;50.778;6.142;2023-09-12T07:46:38;13.53;;;10.80;;
12248;SDS011;6187;50.778;6.142;2023-09-12T07:49:07;15.83;;;11.83;;
12248;SDS011;6187;50.778;6.142;2023-09-12T07:51:35;14.40;;;11.13;;
12248;SDS011;6187;50.778;6.142;2023-09-12T07:54:04;14.50;;;11.73;;
12248;SDS011;6187;50.778;6.142;2023-09-12T07:56:33;12.30;;;10.93;;
12248;SDS011;6187;50.778;6.142;2023-09-12T07:59:01;13.43;;;10.73;;
12248;SDS011;6187;50.778;6.142;2023-09-12T08:01:32;13.07;;;10.10;;
12248;SDS011;6187;50.778;6.142;2023-09-12T08:04:00;10.70;;;9.03;;
12248;SDS011;6187;50.778;6.142;2023-09-12T08:06:29;11.50;;;9.53;;
12248;SDS011;6187;50.778;6.142;2023-09-12T08:09:09;12.27;;;9.80;;
12248;SDS011;6187;50.778;6.142;2023-09-12T08:11:38;10.10;;;9.10;;
12248;SDS011;6187;50.778;6.142;2023-09-12T08:14:07;9.80;;;8.80;;
12248;SDS011;6187;50.778;6.142;2023-09-12T08:16:36;9.63;;;8.43;;
12248;SDS011;6187;50.778;6.142;2023-09-12T08:19:05;10.33;;;9.17;;
12248;SDS011;6187;50.778;6.142;2023-09-12T08:21:35;13.53;;;10.97;;
12248;SDS011;6187;50.778;6.142;2023-09-12T08:24:04;11.83;;;10.30;;
12248;SDS011;6187;50.778;6.142;2023-09-12T08:26:33;12.67;;;11.27;;
12248;SDS011;6187;50.778;6.142;2023-09-12T08:29:01;12.70;;;11.33;;
12248;SDS011;6187;50.778;6.142;2023-09-12T08:31:30;12.33;;;11.10;;
12248;SDS011;6187;50.778;6.142;2023-09-12T08:34:00;12.23;;;10.93;;
12248;SDS011;6187;50.778;6.142;2023-09-12T08:36:29;12.67;;;11.07;;
12248;SDS011;6187;50.778;6.142;2023-09-12T08:38:58;12.47;;;11.17;;
12248;SDS011;6187;50.778;6.142;2023-09-12T08:41:27;13.73;;;12.37;;
12248;SDS011;6187;50.778;6.142;2023-09-12T08:43:56;15.20;;;13.60;;
12248;SDS011;6187;50.778;6.142;2023-09-12T08:46:24;15.17;;;13.67;;
12248;SDS011;6187;50.778;6.142;2023-09-12T08:48:54;14.37;;;12.87;;
12248;SDS011;6187;50.778;6.142;2023-09-12T08:51:24;14.73;;;13.33;;
12248;SDS011;6187;50.778;6.142;2023-09-12T08:53:53;13.57;;;12.17;;
12248;SDS011;6187;50.778;6.142;2023-09-12T08:56:22;14.40;;;12.90;;
12248;SDS011;6187;50.778;6.142;2023-09-12T08:58:51;12.50;;;11.20;;
12248;SDS011;6187;50.778;6.142;2023-09-12T09:01:20;13.90;;;11.87;;
12248;SDS011;6187;50.778;6.142;2023-09-12T09:03:49;14.03;;;12.53;;
12248;SDS011;6187;50.778;6.142;2023-09-12T09:06:17;14.17;;;12.10;;
12248;SDS011;6187;50.778;6.142;2023-09-12T09:08:49;13.40;;;12.03;;
12248;SDS011;6187;50.778;6.142;2023-09-12T09:11:18;11.77;;;10.57;;
12248;SDS011;6187;50.778;6.142;2023-09-12T09:13:47;11.27;;;10.17;;
12248;SDS011;6187;50.778;6.142;2023-09-12T09:16:15;10.70;;;9.70;;
12248;SDS011;6187;50.778;6.142;2023-09-12T09:18:52;9.03;;;8.23;;
12248;SDS011;6187;50.778;6.142;2023-09-12T09:21:21;9.47;;;8.57;;
12248;SDS011;6187;50.778;6.142;2023-09-12T09:23:53;9.73;;;8.77;;
12248;SDS011;6187;50.778;6.142;2023-09-12T09:26:22;11.03;;;9.90;;
12248;SDS011;6187;50.778;6.142;2023-09-12T09:29:02;9.68;;;8.77;;
12248;SDS011;6187;50.778;6.142;2023-09-12T09:31:30;8.38;;;7.57;;
12248;SDS011;6187;50.778;6.142;2023-09-12T09:34:00;7.90;;;7.10;;
12248;SDS011;6187;50.778;6.142;2023-09-12T09:36:30;6.95;;;6.35;;
12248;SDS011;6187;50.778;6.142;2023-09-12T09:39:02;7.25;;;6.50;;
12248;SDS011;6187;50.778;6.142;2023-09-12T09:41:31;8.10;;;6.45;;
12248;SDS011;6187;50.778;6.142;2023-09-12T09:44:00;6.40;;;5.80;;
12248;SDS011;6187;50.778;6.142;2023-09-12T09:46:30;7.13;;;6.43;;
12248;SDS011;6187;50.778;6.142;2023-09-12T09:48:59;5.88;;;5.38;;
12248;SDS011;6187;50.778;6.142;2023-09-12T09:51:29;6.55;;;5.95;;
12248;SDS011;6187;50.778;6.142;2023-09-12T09:53:59;6.45;;;5.82;;
12248;SDS011;6187;50.778;6.142;2023-09-12T09:56:30;6.60;;;5.93;;
12248;SDS011;6187;50.778;6.142;2023-09-12T09:58:59;8.00;;;6.22;;
12248;SDS011;6187;50.778;6.142;2023-09-12T10:01:29;6.60;;;6.00;;
12248;SDS011;6187;50.778;6.142;2023-09-12T10:03:59;6.72;;;6.03;;
12248;SDS011;6187;50.778;6.142;2023-09-12T10:06:29;6.70;;;6.00;;
12248;SDS011;6187;50.778;6.142;2023-09-12T10:09:00;7.10;;;6.40;;
12248;SDS011;6187;50.778;6.142;2023-09-12T10:11:33;5.78;;;5.18;;
12248;SDS011;6187;50.778;6.142;2023-09-12T10:14:03;6.35;;;5.75;;
12248;SDS011;6187;50.778;6.142;2023-09-12T10:16:33;5.75;;;5.25;;
12248;SDS011;6187;50.778;6.142;2023-09-12T10:19:04;5.97;;;5.38;;
12248;SDS011;6187;50.778;6.142;2023-09-12T10:21:37;6.68;;;6.07;;
12248;SDS011;6187;50.778;6.142;2023-09-12T10:24:10;7.13;;;6.43;;
12248;SDS011;6187;50.778;6.142;2023-09-12T10:26:40;8.40;;;7.50;;
12248;SDS011;6187;50.778;6.142;2023-09-12T10:29:12;7.95;;;7.25;;
12248;SDS011;6187;50.778;6.142;2023-09-12T10:31:41;8.73;;;7.82;;
12248;SDS011;6187;50.778;6.142;2023-09-12T10:34:10;8.10;;;7.38;;
12248;SDS011;6187;50.778;6.142;2023-09-12T10:36:42;7.65;;;6.95;;
12248;SDS011;6187;50.778;6.142;2023-09-12T10:39:12;7.35;;;6.65;;
12248;SDS011;6187;50.778;6.142;2023-09-12T10:41:42;7.53;;;6.82;;
12248;SDS011;6187;50.778;6.142;2023-09-12T10:44:14;7.65;;;6.90;;
12248;SDS011;6187;50.778;6.142;2023-09-12T10:46:44;6.90;;;6.20;;
12248;SDS011;6187;50.778;6.142;2023-09-12T10:49:13;7.78;;;7.07;;
12248;SDS011;6187;50.778;6.142;2023-09-12T10:51:43;7.85;;;7.13;;
12248;SDS011;6187;50.778;6.142;2023-09-12T10:54:12;7.85;;;7.10;;
12248;SDS011;6187;50.778;6.142;2023-09-12T10:56:43;7.13;;;6.43;;
12248;SDS011;6187;50.778;6.142;2023-09-12T10:59:17;6.68;;;6.07;;
12248;SDS011;6187;50.778;6.142;2023-09-12T11:01:48;6.53;;;5.93;;
12248;SDS011;6187;50.778;6.142;2023-09-12T11:04:29;7.25;;;6.57;;
12248;SDS011;6187;50.778;6.142;2023-09-12T11:07:00;7.20;;;6.50;;
12248;SDS011;6187;50.778;6.142;2023-09-12T11:09:29;5.90;;;5.40;;
12248;SDS011;6187;50.778;6.142;2023-09-12T11:12:02;5.75;;;5.15;;
12248;SDS011;6187;50.778;6.142;2023-09-12T11:14:31;5.50;;;5.00;;
12248;SDS011;6187;50.778;6.142;2023-09-12T11:17:19;6.35;;;5.75;;
12248;SDS011;6187;50.778;6.142;2023-09-12T11:19:49;5.20;;;4.78;;
12248;SDS011;6187;50.778;6.142;2023-09-12T11:22:23;6.63;;;5.90;;
12248;SDS011;6187;50.778;6.142;2023-09-12T11:24:52;6.95;;;6.15;;
12248;SDS011;6187;50.778;6.142;2023-09-12T11:27:25;6.55;;;5.95;;
12248;SDS011;6187;50.778;6.142;2023-09-12T11:30:03;6.68;;;6.00;;
12248;SDS011;6187;50.778;6.142;2023-09-12T11:32:32;7.10;;;6.43;;
12248;SDS011;6187;50.778;6.142;2023-09-12T11:35:04;7.95;;;6.70;;
12248;SDS011;6187;50.778;6.142;2023-09-12T11:37:33;7.63;;;6.93;;
12248;SDS011;6187;50.778;6.142;2023-09-12T11:40:14;6.25;;;5.60;;
12248;SDS011;6187;50.778;6.142;2023-09-12T11:42:45;5.60;;;5.10;;
12248;SDS011;6187;50.778;6.142;2023-09-12T11:45:18;5.95;;;5.25;;
12248;SDS011;6187;50.778;6.142;2023-09-12T11:47:47;5.88;;;5.28;;
12248;SDS011;6187;50.778;6.142;2023-09-12T11:50:25;5.88;;;5.28;;
12248;SDS011;6187;50.778;6.142;2023-09-12T11:52:58;5.50;;;4.80;;
12248;SDS011;6187;50.778;6.142;2023-09-12T11:55:27;6.57;;;5.75;;
12248;SDS011;6187;50.778;6.142;2023-09-12T11:57:58;6.15;;;5.55;;
12248;SDS011;6187;50.778;6.142;2023-09-12T12:00:27;8.27;;;5.65;;
12248;SDS011;6187;50.778;6.142;2023-09-12T12:02:56;6.25;;;5.63;;
12248;SDS011;6187;50.778;6.142;2023-09-12T12:05:26;6.35;;;5.75;;
12248;SDS011;6187;50.778;6.142;2023-09-12T12:07:54;6.55;;;5.95;;
12248;SDS011;6187;50.778;6.142;2023-09-12T12:10:43;6.68;;;6.05;;
12248;SDS011;6187;50.778;6.142;2023-09-12T12:13:15;6.82;;;6.22;;
12248;SDS011;6187;50.778;6.142;2023-09-12T12:15:44;7.57;;;6.32;;
12248;SDS011;6187;50.778;6.142;2023-09-12T12:18:13;7.15;;;6.55;;
12248;SDS011;6187;50.778;6.142;2023-09-12T12:20:41;6.35;;;5.75;;
12248;SDS011;6187;50.778;6.142;2023-09-12T12:23:10;6.20;;;5.70;;
12248;SDS011;6187;50.778;6.142;2023-09-12T12:25:39;6.53;;;6.03;;
12248;SDS011;6187;50.778;6.142;2023-09-12T12:28:07;6.82;;;6.22;;
12248;SDS011;6187;50.778;6.142;2023-09-12T12:30:38;5.25;;;4.80;;
12248;SDS011;6187;50.778;6.142;2023-09-12T12:33:08;6.47;;;5.13;;
12248;SDS011;6187;50.778;6.142;2023-09-12T12:35:59;5.95;;;4.97;;
12248;SDS011;6187;50.778;6.142;2023-09-12T12:38:31;4.57;;;4.18;;
12248;SDS011;6187;50.778;6.142;2023-09-12T12:41:00;4.53;;;4.13;;
12248;SDS011;6187;50.778;6.142;2023-09-12T12:43:29;4.40;;;4.00;;
12248;SDS011;6187;50.778;6.142;2023-09-12T12:45:59;5.20;;;4.40;;
12248;SDS011;6187;50.778;6.142;2023-09-12T12:48:31;4.50;;;4.10;;
12248;SDS011;6187;50.778;6.142;2023-09-12T12:51:01;4.70;;;4.20;;
12248;SDS011;6187;50.778;6.142;2023-09-12T12:53:43;4.43;;;4.03;;
12248;SDS011;6187;50.778;6.142;2023-09-12T12:56:20;4.70;;;4.03;;
12248;SDS011;6187;50.778;6.142;2023-09-12T12:58:49;4.90;;;4.40;;
12248;SDS011;6187;50.778;6.142;2023-09-12T13:01:20;4.57;;;4.07;;
12248;SDS011;6187;50.778;6.142;2023-09-12T13:03:49;4.82;;;3.60;;
12248;SDS011;6187;50.778;6.142;2023-09-12T13:06:18;3.70;;;3.40;;
12248;SDS011;6187;50.778;6.142;2023-09-12T13:08:47;4.22;;;3.83;;
12248;SDS011;6187;50.778;6.142;2023-09-12T13:11:16;4.32;;;3.70;;
12248;SDS011;6187;50.778;6.142;2023-09-12T13:13:45;4.43;;;3.70;;
12248;SDS011;6187;50.778;6.142;2023-09-12T13:16:15;3.13;;;2.83;;
12248;SDS011;6187;50.778;6.142;2023-09-12T13:18:45;3.45;;;3.15;;
12248;SDS011;6187;50.778;6.142;2023-09-12T13:21:14;3.80;;;3.40;;
12248;SDS011;6187;50.778;6.142;2023-09-12T13:23:43;5.95;;;5.40;;
12248;SDS011;6187;50.778;6.142;2023-09-12T13:26:12;5.13;;;4.63;;
12248;SDS011;6187;50.778;6.142;2023-09-12T13:28:40;4.10;;;3.72;;
12248;SDS011;6187;50.778;6.142;2023-09-12T13:31:09;3.60;;;3.30;;
12248;SDS011;6187;50.778;6.142;2023-09-12T13:33:38;3.38;;;3.08;;
12248;SDS011;6187;50.778;6.142;2023-09-12T13:36:10;3.47;;;3.17;;
12248;SDS011;6187;50.778;6.142;2023-09-12T13:38:39;3.72;;;3.40;;
12248;SDS011;6187;50.778;6.142;2023-09-12T13:41:08;3.70;;;3.38;;
12248;SDS011;6187;50.778;6.142;2023-09-12T13:43:37;4.13;;;3.72;;
12248;SDS011;6187;50.778;6.142;2023-09-12T13:46:07;3.90;;;3.50;;
12248;SDS011;6187;50.778;6.142;2023-09-12T13:48:37;4.15;;;3.35;;
12248;SDS011;6187;50.778;6.142;2023-09-12T13:51:06;3.95;;;3.22;;
12248;SDS011;6187;50.778;6.142;2023-09-12T13:53:36;3.95;;;3.55;;
12248;SDS011;6187;50.778;6.142;2023-09-12T13:56:04;3.25;;;2.95;;
12248;SDS011;6187;50.778;6.142;2023-09-12T13:58:34;4.47;;;4.07;;
12248;SDS011;6187;50.778;6.142;2023-09-12T14:01:07;3.45;;;3.15;;
12248;SDS011;6187;50.778;6.142;2023-09-12T14:03:40;3.67;;;3.38;;
12248;SDS011;6187;50.778;6.142;2023-09-12T14:06:09;3.67;;;3.08;;
12248;SDS011;6187;50.778;6.142;2023-09-12T14:08:40;3.78;;;3.03;;
12248;SDS011;6187;50.778;6.142;2023-09-12T14:11:10;3.38;;;3.08;;
12248;SDS011;6187;50.778;6.142;2023-09-12T14:13:56;3.22;;;2.92;;
12248;SDS011;6187;50.778;6.142;2023-09-12T14:16:38;3.70;;;3.30;;
12248;SDS011;6187;50.778;6.142;2023-09-12T14:19:08;4.00;;;3.50;;
12248;SDS011;6187;50.778;6.142;2023-09-12T14:21:38;3.33;;;3.05;;
12248;SDS011;6187;50.778;6.142;2023-09-12T14:24:08;4.10;;;3.33;;
12248;SDS011;6187;50.778;6.142;2023-09-12T14:26:38;3.65;;;3.35;;
12248;SDS011;6187;50.778;6.142;2023-09-12T14:29:08;3.70;;;3.40;;
12248;SDS011;6187;50.778;6.142;2023-09-12T14:31:38;3.67;;;3.38;;
12248;SDS011;6187;50.778;6.142;2023-09-12T14:34:15;3.88;;;3.30;;
12248;SDS011;6187;50.778;6.142;2023-09-12T14:36:44;3.70;;;3.40;;
12248;SDS011;6187;50.778;6.142;2023-09-12T14:39:15;4.72;;;3.33;;
12248;SDS011;6187;50.778;6.142;2023-09-12T14:41:44;3.13;;;2.83;;
12248;SDS011;6187;50.778;6.142;2023-09-12T14:44:16;3.58;;;3.25;;
12248;SDS011;6187;50.778;6.142;2023-09-12T14:46:45;3.50;;;3.20;;
12248;SDS011;6187;50.778;6.142;2023-09-12T14:49:14;3.63;;;2.92;;
12248;SDS011;6187;50.778;6.142;2023-09-12T14:51:43;3.50;;;3.20;;
12248;SDS011;6187;50.778;6.142;2023-09-12T14:54:12;3.33;;;3.07;;
12248;SDS011;6187;50.778;6.142;2023-09-12T14:56:42;3.88;;;3.40;;
12248;SDS011;6187;50.778;6.142;2023-09-12T14:59:11;3.20;;;2.90;;
12248;SDS011;6187;50.778;6.142;2023-09-12T15:01:40;4.07;;;3.67;;
12248;SDS011;6187;50.778;6.142;2023-09-12T15:04:09;4.03;;;3.10;;
12248;SDS011;6187;50.778;6.142;2023-09-12T15:06:38;3.55;;;3.25;;
12248;SDS011;6187;50.778;6.142;2023-09-12T15:09:07;4.05;;;3.65;;
12248;SDS011;6187;50.778;6.142;2023-09-12T15:11:36;3.80;;;3.50;;
12248;SDS011;6187;50.778;6.142;2023-09-12T15:14:06;4.95;;;3.47;;